sensor_id;sensor_type;location;lat;lon;timestamp;P1;durP1;ratioP1;P2;durP2;ratioP2
4486;SDS011;2256;48.740;9.106;2023-05-16T00:01:05;14.13;;;8.30;;
4486;SDS011;2256;48.740;9.106;2023-05-16T00:03:32;17.93;;;7.87;;
4486;SDS011;2256;48.740;9.106;2023-05-16T00:05:59;12.03;;;7.30;;
4486;SDS011;2256;48.740;9.106;2023-05-16T00:08:27;15.93;;;8.43;;
4486;SDS011;2256;48.740;9.106;2023-05-16T00:10:54;15.03;;;8.73;;
4486;SDS011;2256;48.740;9.106;2023-05-16T00:13:21;17.37;;;9.63;;
4486;SDS011;2256;48.740;9.106;2023-05-16T00:15:49;13.07;;;8.20;;
4486;SDS011;2256;48.740;9.106;2023-05-16T00:18:16;14.67;;;8.60;;
4486;SDS011;2256;48.740;9.106;2023-05-16T00:20:43;15.27;;;9.53;;
4486;SDS011;2256;48.740;9.106;2023-05-16T00:23:10;19.30;;;9.93;;
4486;SDS011;2256;48.740;9.106;2023-05-16T00:25:38;21.47;;;10.90;;
4486;SDS011;2256;48.740;9.106;2023-05-16T00:28:05;25.70;;;12.03;;
4486;SDS011;2256;48.740;9.106;2023-05-16T00:30:32;31.23;;;12.40;;
4486;SDS011;2256;48.740;9.106;2023-05-16T00:32:59;27.97;;;13.50;;
4486;SDS011;2256;48.740;9.106;2023-05-16T00:35:26;22.50;;;12.43;;
4486;SDS011;2256;48.740;9.106;2023-05-16T00:37:53;33.67;;;13.53;;
4486;SDS011;2256;48.740;9.106;2023-05-16T00:40:20;25.70;;;13.00;;
4486;SDS011;2256;48.740;9.106;2023-05-16T00:42:48;25.33;;;13.97;;
4486;SDS011;2256;48.740;9.106;2023-05-16T00:45:15;34.20;;;14.63;;
4486;SDS011;2256;48.740;9.106;2023-05-16T00:47:41;26.20;;;12.83;;
4486;SDS011;2256;48.740;9.106;2023-05-16T00:50:09;26.10;;;13.17;;
4486;SDS011;2256;48.740;9.106;2023-05-16T00:52:36;26.07;;;13.40;;
4486;SDS011;2256;48.740;9.106;2023-05-16T00:55:03;25.70;;;13.93;;
4486;SDS011;2256;48.740;9.106;2023-05-16T00:57:30;27.87;;;13.50;;
4486;SDS011;2256;48.740;9.106;2023-05-16T00:59:59;23.80;;;13.00;;
4486;SDS011;2256;48.740;9.106;2023-05-16T01:02:25;28.70;;;14.67;;
4486;SDS011;2256;48.740;9.106;2023-05-16T01:04:54;25.23;;;12.27;;
4486;SDS011;2256;48.740;9.106;2023-05-16T01:07:21;21.50;;;12.30;;
4486;SDS011;2256;48.740;9.106;2023-05-16T01:09:48;24.73;;;13.70;;
4486;SDS011;2256;48.740;9.106;2023-05-16T01:12:18;33.07;;;12.67;;
4486;SDS011;2256;48.740;9.106;2023-05-16T01:14:50;28.83;;;13.40;;
4486;SDS011;2256;48.740;9.106;2023-05-16T01:17:28;28.47;;;14.23;;
4486;SDS011;2256;48.740;9.106;2023-05-16T01:20:07;28.83;;;14.70;;
4486;SDS011;2256;48.740;9.106;2023-05-16T01:22:45;24.77;;;13.50;;
4486;SDS011;2256;48.740;9.106;2023-05-16T01:25:21;28.17;;;14.23;;
4486;SDS011;2256;48.740;9.106;2023-05-16T01:28:02;29.33;;;15.00;;
4486;SDS011;2256;48.740;9.106;2023-05-16T01:30:31;30.10;;;16.07;;
4486;SDS011;2256;48.740;9.106;2023-05-16T01:33:02;28.80;;;14.80;;
4486;SDS011;2256;48.740;9.106;2023-05-16T01:35:28;37.40;;;17.00;;
4486;SDS011;2256;48.740;9.106;2023-05-16T01:37:57;28.53;;;15.00;;
4486;SDS011;2256;48.740;9.106;2023-05-16T01:40:31;31.00;;;15.83;;
4486;SDS011;2256;48.740;9.106;2023-05-16T01:43:04;36.43;;;16.77;;
4486;SDS011;2256;48.740;9.106;2023-05-16T01:45:36;34.43;;;15.57;;
4486;SDS011;2256;48.740;9.106;2023-05-16T01:48:09;38.30;;;18.23;;
4486;SDS011;2256;48.740;9.106;2023-05-16T01:50:43;37.07;;;17.10;;
4486;SDS011;2256;48.740;9.106;2023-05-16T01:53:13;35.53;;;16.53;;
4486;SDS011;2256;48.740;9.106;2023-05-16T01:55:44;41.57;;;18.07;;
4486;SDS011;2256;48.740;9.106;2023-05-16T01:58:14;39.57;;;18.57;;
4486;SDS011;2256;48.740;9.106;2023-05-16T02:00:44;47.80;;;20.20;;
4486;SDS011;2256;48.740;9.106;2023-05-16T02:03:11;51.37;;;18.77;;
4486;SDS011;2256;48.740;9.106;2023-05-16T02:05:37;40.57;;;18.40;;
4486;SDS011;2256;48.740;9.106;2023-05-16T02:08:04;52.97;;;18.80;;
4486;SDS011;2256;48.740;9.106;2023-05-16T02:10:32;40.30;;;19.03;;
4486;SDS011;2256;48.740;9.106;2023-05-16T02:12:59;42.70;;;19.73;;
4486;SDS011;2256;48.740;9.106;2023-05-16T02:15:27;41.27;;;18.80;;
4486;SDS011;2256;48.740;9.106;2023-05-16T02:17:54;48.63;;;20.67;;
4486;SDS011;2256;48.740;9.106;2023-05-16T02:20:20;42.47;;;20.07;;
4486;SDS011;2256;48.740;9.106;2023-05-16T02:22:47;49.07;;;20.33;;
4486;SDS011;2256;48.740;9.106;2023-05-16T02:25:14;43.40;;;18.83;;
4486;SDS011;2256;48.740;9.106;2023-05-16T02:27:41;46.17;;;19.60;;
4486;SDS011;2256;48.740;9.106;2023-05-16T02:30:08;47.73;;;20.87;;
4486;SDS011;2256;48.740;9.106;2023-05-16T02:32:37;41.00;;;19.37;;
4486;SDS011;2256;48.740;9.106;2023-05-16T02:35:04;46.90;;;18.23;;
4486;SDS011;2256;48.740;9.106;2023-05-16T02:37:31;45.33;;;21.50;;
4486;SDS011;2256;48.740;9.106;2023-05-16T02:39:58;42.90;;;19.10;;
4486;SDS011;2256;48.740;9.106;2023-05-16T02:42:25;47.43;;;20.10;;
4486;SDS011;2256;48.740;9.106;2023-05-16T02:44:53;45.77;;;19.70;;
4486;SDS011;2256;48.740;9.106;2023-05-16T02:47:20;43.27;;;19.17;;
4486;SDS011;2256;48.740;9.106;2023-05-16T02:49:48;42.33;;;18.03;;
4486;SDS011;2256;48.740;9.106;2023-05-16T02:52:16;44.73;;;19.53;;
4486;SDS011;2256;48.740;9.106;2023-05-16T02:54:42;45.97;;;19.40;;
4486;SDS011;2256;48.740;9.106;2023-05-16T02:57:09;48.93;;;19.00;;
4486;SDS011;2256;48.740;9.106;2023-05-16T02:59:36;48.67;;;19.90;;
4486;SDS011;2256;48.740;9.106;2023-05-16T03:02:03;45.30;;;19.60;;
4486;SDS011;2256;48.740;9.106;2023-05-16T03:04:30;48.33;;;20.60;;
4486;SDS011;2256;48.740;9.106;2023-05-16T03:06:58;42.30;;;19.10;;
4486;SDS011;2256;48.740;9.106;2023-05-16T03:09:25;42.53;;;18.53;;
4486;SDS011;2256;48.740;9.106;2023-05-16T03:11:51;54.07;;;21.93;;
4486;SDS011;2256;48.740;9.106;2023-05-16T03:14:18;47.10;;;20.90;;
4486;SDS011;2256;48.740;9.106;2023-05-16T03:16:45;46.00;;;19.30;;
4486;SDS011;2256;48.740;9.106;2023-05-16T03:19:12;42.93;;;20.07;;
4486;SDS011;2256;48.740;9.106;2023-05-16T03:21:39;47.10;;;20.30;;
4486;SDS011;2256;48.740;9.106;2023-05-16T03:24:07;49.70;;;21.27;;
4486;SDS011;2256;48.740;9.106;2023-05-16T03:26:34;43.13;;;18.50;;
4486;SDS011;2256;48.740;9.106;2023-05-16T03:29:01;46.33;;;21.90;;
4486;SDS011;2256;48.740;9.106;2023-05-16T03:31:28;54.87;;;21.50;;
4486;SDS011;2256;48.740;9.106;2023-05-16T03:33:58;49.43;;;21.20;;
4486;SDS011;2256;48.740;9.106;2023-05-16T03:36:25;51.67;;;21.13;;
4486;SDS011;2256;48.740;9.106;2023-05-16T03:38:52;52.60;;;22.60;;
4486;SDS011;2256;48.740;9.106;2023-05-16T03:41:21;50.00;;;21.83;;
4486;SDS011;2256;48.740;9.106;2023-05-16T03:43:48;70.30;;;23.77;;
4486;SDS011;2256;48.740;9.106;2023-05-16T03:46:14;56.17;;;21.70;;
4486;SDS011;2256;48.740;9.106;2023-05-16T03:48:41;53.87;;;22.13;;
4486;SDS011;2256;48.740;9.106;2023-05-16T03:51:08;58.77;;;22.90;;
4486;SDS011;2256;48.740;9.106;2023-05-16T03:53:35;56.13;;;22.47;;
4486;SDS011;2256;48.740;9.106;2023-05-16T03:56:02;61.93;;;22.97;;
4486;SDS011;2256;48.740;9.106;2023-05-16T03:58:31;53.47;;;22.17;;
4486;SDS011;2256;48.740;9.106;2023-05-16T04:00:58;62.30;;;24.67;;
4486;SDS011;2256;48.740;9.106;2023-05-16T04:03:24;64.47;;;24.80;;
4486;SDS011;2256;48.740;9.106;2023-05-16T04:05:52;59.90;;;22.50;;
4486;SDS011;2256;48.740;9.106;2023-05-16T04:08:20;60.80;;;22.03;;
4486;SDS011;2256;48.740;9.106;2023-05-16T04:10:47;59.50;;;22.37;;
4486;SDS011;2256;48.740;9.106;2023-05-16T04:13:14;72.53;;;24.43;;
4486;SDS011;2256;48.740;9.106;2023-05-16T04:15:42;58.80;;;22.83;;
4486;SDS011;2256;48.740;9.106;2023-05-16T04:18:09;64.93;;;24.40;;
4486;SDS011;2256;48.740;9.106;2023-05-16T04:20:35;68.90;;;24.80;;
4486;SDS011;2256;48.740;9.106;2023-05-16T04:23:02;58.80;;;21.80;;
4486;SDS011;2256;48.740;9.106;2023-05-16T04:25:29;55.73;;;22.60;;
4486;SDS011;2256;48.740;9.106;2023-05-16T04:27:56;57.60;;;22.30;;
4486;SDS011;2256;48.740;9.106;2023-05-16T04:30:22;58.50;;;24.10;;
4486;SDS011;2256;48.740;9.106;2023-05-16T04:32:51;71.13;;;23.80;;
4486;SDS011;2256;48.740;9.106;2023-05-16T04:35:17;59.50;;;25.00;;
4486;SDS011;2256;48.740;9.106;2023-05-16T04:37:45;53.27;;;21.13;;
4486;SDS011;2256;48.740;9.106;2023-05-16T04:40:12;53.80;;;20.27;;
4486;SDS011;2256;48.740;9.106;2023-05-16T04:42:39;57.53;;;23.57;;
4486;SDS011;2256;48.740;9.106;2023-05-16T04:45:06;63.13;;;22.20;;
4486;SDS011;2256;48.740;9.106;2023-05-16T04:47:35;62.33;;;22.93;;
4486;SDS011;2256;48.740;9.106;2023-05-16T04:50:04;59.00;;;23.47;;
4486;SDS011;2256;48.740;9.106;2023-05-16T04:52:33;52.73;;;21.20;;
4486;SDS011;2256;48.740;9.106;2023-05-16T04:54:59;70.93;;;24.70;;
4486;SDS011;2256;48.740;9.106;2023-05-16T04:57:26;55.47;;;22.07;;
4486;SDS011;2256;48.740;9.106;2023-05-16T04:59:53;62.90;;;22.97;;
4486;SDS011;2256;48.740;9.106;2023-05-16T05:02:20;65.30;;;23.23;;
4486;SDS011;2256;48.740;9.106;2023-05-16T05:04:47;63.03;;;21.13;;
4486;SDS011;2256;48.740;9.106;2023-05-16T05:07:16;68.47;;;24.00;;
4486;SDS011;2256;48.740;9.106;2023-05-16T05:09:43;51.53;;;23.20;;
4486;SDS011;2256;48.740;9.106;2023-05-16T05:12:10;59.77;;;22.37;;
4486;SDS011;2256;48.740;9.106;2023-05-16T05:14:37;52.57;;;22.60;;
4486;SDS011;2256;48.740;9.106;2023-05-16T05:17:04;57.53;;;23.40;;
4486;SDS011;2256;48.740;9.106;2023-05-16T05:19:31;63.40;;;24.20;;
4486;SDS011;2256;48.740;9.106;2023-05-16T05:21:57;62.53;;;24.20;;
4486;SDS011;2256;48.740;9.106;2023-05-16T05:24:25;64.40;;;24.73;;
4486;SDS011;2256;48.740;9.106;2023-05-16T05:26:52;56.50;;;23.80;;
4486;SDS011;2256;48.740;9.106;2023-05-16T05:29:19;58.37;;;23.40;;
4486;SDS011;2256;48.740;9.106;2023-05-16T05:31:46;63.47;;;21.93;;
4486;SDS011;2256;48.740;9.106;2023-05-16T05:34:13;56.93;;;22.87;;
4486;SDS011;2256;48.740;9.106;2023-05-16T05:36:40;55.70;;;22.00;;
4486;SDS011;2256;48.740;9.106;2023-05-16T05:39:08;48.97;;;21.33;;
4486;SDS011;2256;48.740;9.106;2023-05-16T05:41:36;64.83;;;24.17;;
4486;SDS011;2256;48.740;9.106;2023-05-16T05:44:04;66.63;;;23.07;;
4486;SDS011;2256;48.740;9.106;2023-05-16T05:46:31;60.70;;;23.93;;
4486;SDS011;2256;48.740;9.106;2023-05-16T05:48:59;55.70;;;21.10;;
4486;SDS011;2256;48.740;9.106;2023-05-16T05:51:26;61.77;;;22.17;;
4486;SDS011;2256;48.740;9.106;2023-05-16T05:53:53;56.20;;;23.80;;
4486;SDS011;2256;48.740;9.106;2023-05-16T05:56:20;51.30;;;20.83;;
4486;SDS011;2256;48.740;9.106;2023-05-16T05:58:50;52.70;;;22.30;;
4486;SDS011;2256;48.740;9.106;2023-05-16T06:01:17;50.00;;;21.63;;
4486;SDS011;2256;48.740;9.106;2023-05-16T06:03:45;59.30;;;22.27;;
4486;SDS011;2256;48.740;9.106;2023-05-16T06:06:12;63.50;;;23.40;;
4486;SDS011;2256;48.740;9.106;2023-05-16T06:08:40;57.87;;;21.50;;
4486;SDS011;2256;48.740;9.106;2023-05-16T06:11:06;57.57;;;22.70;;
4486;SDS011;2256;48.740;9.106;2023-05-16T06:13:33;61.03;;;24.17;;
4486;SDS011;2256;48.740;9.106;2023-05-16T06:16:02;49.90;;;20.80;;
4486;SDS011;2256;48.740;9.106;2023-05-16T06:18:29;55.70;;;22.97;;
4486;SDS011;2256;48.740;9.106;2023-05-16T06:20:56;45.70;;;20.37;;
4486;SDS011;2256;48.740;9.106;2023-05-16T06:23:23;50.90;;;20.77;;
4486;SDS011;2256;48.740;9.106;2023-05-16T06:25:51;52.73;;;20.90;;
4486;SDS011;2256;48.740;9.106;2023-05-16T06:28:18;48.30;;;19.07;;
4486;SDS011;2256;48.740;9.106;2023-05-16T06:30:44;49.73;;;21.87;;
4486;SDS011;2256;48.740;9.106;2023-05-16T06:33:13;49.27;;;21.07;;
4486;SDS011;2256;48.740;9.106;2023-05-16T06:35:40;52.27;;;21.43;;
4486;SDS011;2256;48.740;9.106;2023-05-16T06:38:07;41.37;;;16.87;;
4486;SDS011;2256;48.740;9.106;2023-05-16T06:40:34;46.67;;;19.00;;
4486;SDS011;2256;48.740;9.106;2023-05-16T06:43:01;42.90;;;17.50;;
4486;SDS011;2256;48.740;9.106;2023-05-16T06:45:28;43.10;;;18.17;;
4486;SDS011;2256;48.740;9.106;2023-05-16T06:47:55;34.20;;;16.33;;
4486;SDS011;2256;48.740;9.106;2023-05-16T06:50:23;43.73;;;17.77;;
4486;SDS011;2256;48.740;9.106;2023-05-16T06:52:50;42.23;;;18.73;;
4486;SDS011;2256;48.740;9.106;2023-05-16T06:55:17;38.77;;;16.50;;
4486;SDS011;2256;48.740;9.106;2023-05-16T06:57:43;40.90;;;17.17;;
4486;SDS011;2256;48.740;9.106;2023-05-16T07:00:10;32.63;;;16.37;;
4486;SDS011;2256;48.740;9.106;2023-05-16T07:02:38;43.40;;;19.60;;
4486;SDS011;2256;48.740;9.106;2023-05-16T07:05:05;38.80;;;18.00;;
4486;SDS011;2256;48.740;9.106;2023-05-16T07:07:34;37.33;;;17.80;;
4486;SDS011;2256;48.740;9.106;2023-05-16T07:10:01;33.33;;;15.80;;
4486;SDS011;2256;48.740;9.106;2023-05-16T07:12:27;44.63;;;15.67;;
4486;SDS011;2256;48.740;9.106;2023-05-16T07:14:55;38.40;;;16.50;;
4486;SDS011;2256;48.740;9.106;2023-05-16T07:17:22;33.07;;;15.87;;
4486;SDS011;2256;48.740;9.106;2023-05-16T07:19:48;34.00;;;15.73;;
4486;SDS011;2256;48.740;9.106;2023-05-16T07:22:15;34.40;;;16.83;;
4486;SDS011;2256;48.740;9.106;2023-05-16T07:24:43;30.60;;;14.30;;
4486;SDS011;2256;48.740;9.106;2023-05-16T07:27:10;26.97;;;13.27;;
4486;SDS011;2256;48.740;9.106;2023-05-16T07:29:37;32.77;;;14.23;;
4486;SDS011;2256;48.740;9.106;2023-05-16T07:32:04;29.13;;;13.33;;
4486;SDS011;2256;48.740;9.106;2023-05-16T07:34:31;37.17;;;16.07;;
4486;SDS011;2256;48.740;9.106;2023-05-16T07:36:58;32.83;;;16.03;;
4486;SDS011;2256;48.740;9.106;2023-05-16T07:39:25;28.60;;;13.50;;
4486;SDS011;2256;48.740;9.106;2023-05-16T07:41:53;26.00;;;12.57;;
4486;SDS011;2256;48.740;9.106;2023-05-16T07:44:20;26.30;;;12.77;;
4486;SDS011;2256;48.740;9.106;2023-05-16T07:46:47;26.10;;;12.17;;
4486;SDS011;2256;48.740;9.106;2023-05-16T07:49:14;25.07;;;11.20;;
4486;SDS011;2256;48.740;9.106;2023-05-16T07:51:41;29.23;;;13.23;;
4486;SDS011;2256;48.740;9.106;2023-05-16T07:54:08;28.97;;;12.17;;
4486;SDS011;2256;48.740;9.106;2023-05-16T07:56:35;27.47;;;13.40;;
4486;SDS011;2256;48.740;9.106;2023-05-16T07:59:03;24.93;;;11.40;;
4486;SDS011;2256;48.740;9.106;2023-05-16T08:01:30;29.60;;;13.47;;
4486;SDS011;2256;48.740;9.106;2023-05-16T08:03:57;23.93;;;11.17;;
4486;SDS011;2256;48.740;9.106;2023-05-16T08:06:24;27.13;;;13.80;;
4486;SDS011;2256;48.740;9.106;2023-05-16T08:08:51;24.80;;;12.03;;
4486;SDS011;2256;48.740;9.106;2023-05-16T08:11:18;26.17;;;12.40;;
4486;SDS011;2256;48.740;9.106;2023-05-16T08:13:46;30.37;;;12.10;;
4486;SDS011;2256;48.740;9.106;2023-05-16T08:16:14;25.40;;;13.00;;
4486;SDS011;2256;48.740;9.106;2023-05-16T08:18:41;30.67;;;13.37;;
4486;SDS011;2256;48.740;9.106;2023-05-16T08:21:08;26.87;;;13.50;;
4486;SDS011;2256;48.740;9.106;2023-05-16T08:23:35;26.33;;;12.43;;
4486;SDS011;2256;48.740;9.106;2023-05-16T08:26:01;29.60;;;14.03;;
4486;SDS011;2256;48.740;9.106;2023-05-16T08:28:29;30.17;;;13.37;;
4486;SDS011;2256;48.740;9.106;2023-05-16T08:30:56;22.60;;;11.27;;
4486;SDS011;2256;48.740;9.106;2023-05-16T08:33:24;30.30;;;13.60;;
4486;SDS011;2256;48.740;9.106;2023-05-16T08:35:51;27.83;;;12.63;;
4486;SDS011;2256;48.740;9.106;2023-05-16T08:38:17;28.20;;;13.30;;
4486;SDS011;2256;48.740;9.106;2023-05-16T08:40:44;26.70;;;13.13;;
4486;SDS011;2256;48.740;9.106;2023-05-16T08:43:11;28.17;;;12.47;;
4486;SDS011;2256;48.740;9.106;2023-05-16T08:45:39;25.67;;;12.23;;
4486;SDS011;2256;48.740;9.106;2023-05-16T08:48:06;24.57;;;11.80;;
4486;SDS011;2256;48.740;9.106;2023-05-16T08:50:36;16.67;;;10.33;;
4486;SDS011;2256;48.740;9.106;2023-05-16T08:53:03;21.03;;;10.20;;
4486;SDS011;2256;48.740;9.106;2023-05-16T08:55:32;21.07;;;9.30;;
4486;SDS011;2256;48.740;9.106;2023-05-16T08:57:59;24.40;;;12.13;;
4486;SDS011;2256;48.740;9.106;2023-05-16T09:00:26;23.40;;;10.77;;
4486;SDS011;2256;48.740;9.106;2023-05-16T09:02:53;22.20;;;11.50;;
4486;SDS011;2256;48.740;9.106;2023-05-16T09:05:20;21.83;;;10.83;;
4486;SDS011;2256;48.740;9.106;2023-05-16T09:07:49;18.00;;;10.67;;
4486;SDS011;2256;48.740;9.106;2023-05-16T09:10:16;25.07;;;11.07;;
4486;SDS011;2256;48.740;9.106;2023-05-16T09:12:43;23.10;;;11.83;;
4486;SDS011;2256;48.740;9.106;2023-05-16T09:15:12;25.13;;;11.77;;
4486;SDS011;2256;48.740;9.106;2023-05-16T09:17:40;25.73;;;12.10;;
4486;SDS011;2256;48.740;9.106;2023-05-16T09:20:09;26.77;;;12.40;;
4486;SDS011;2256;48.740;9.106;2023-05-16T09:22:37;29.50;;;12.30;;
4486;SDS011;2256;48.740;9.106;2023-05-16T09:25:06;22.00;;;11.10;;
4486;SDS011;2256;48.740;9.106;2023-05-16T09:27:33;22.10;;;11.27;;
4486;SDS011;2256;48.740;9.106;2023-05-16T09:30:00;27.17;;;13.77;;
4486;SDS011;2256;48.740;9.106;2023-05-16T09:32:27;27.77;;;13.27;;
4486;SDS011;2256;48.740;9.106;2023-05-16T09:34:54;27.40;;;11.53;;
4486;SDS011;2256;48.740;9.106;2023-05-16T09:37:22;32.43;;;13.60;;
4486;SDS011;2256;48.740;9.106;2023-05-16T09:39:50;26.40;;;12.47;;
4486;SDS011;2256;48.740;9.106;2023-05-16T09:42:21;24.20;;;11.23;;
4486;SDS011;2256;48.740;9.106;2023-05-16T09:44:48;26.87;;;12.20;;
4486;SDS011;2256;48.740;9.106;2023-05-16T09:47:17;31.77;;;12.50;;
4486;SDS011;2256;48.740;9.106;2023-05-16T09:49:45;25.20;;;11.77;;
4486;SDS011;2256;48.740;9.106;2023-05-16T09:52:13;25.57;;;11.57;;
4486;SDS011;2256;48.740;9.106;2023-05-16T09:54:40;21.10;;;10.93;;
4486;SDS011;2256;48.740;9.106;2023-05-16T09:57:07;24.90;;;10.93;;
4486;SDS011;2256;48.740;9.106;2023-05-16T09:59:36;26.13;;;12.37;;
4486;SDS011;2256;48.740;9.106;2023-05-16T10:02:04;26.60;;;12.40;;
4486;SDS011;2256;48.740;9.106;2023-05-16T10:04:32;25.60;;;11.50;;
4486;SDS011;2256;48.740;9.106;2023-05-16T10:07:00;23.23;;;12.40;;
4486;SDS011;2256;48.740;9.106;2023-05-16T10:09:28;22.93;;;11.63;;
4486;SDS011;2256;48.740;9.106;2023-05-16T10:11:58;25.20;;;11.90;;
4486;SDS011;2256;48.740;9.106;2023-05-16T10:14:28;26.27;;;12.00;;
4486;SDS011;2256;48.740;9.106;2023-05-16T10:17:01;27.40;;;11.77;;
4486;SDS011;2256;48.740;9.106;2023-05-16T10:19:29;26.33;;;11.83;;
4486;SDS011;2256;48.740;9.106;2023-05-16T10:21:59;21.37;;;11.53;;
4486;SDS011;2256;48.740;9.106;2023-05-16T10:24:30;25.30;;;10.30;;
4486;SDS011;2256;48.740;9.106;2023-05-16T10:27:04;20.40;;;11.10;;
4486;SDS011;2256;48.740;9.106;2023-05-16T10:29:31;24.37;;;11.10;;
4486;SDS011;2256;48.740;9.106;2023-05-16T10:31:58;27.50;;;11.00;;
4486;SDS011;2256;48.740;9.106;2023-05-16T10:34:26;25.80;;;11.00;;
4486;SDS011;2256;48.740;9.106;2023-05-16T10:36:53;21.30;;;11.20;;
4486;SDS011;2256;48.740;9.106;2023-05-16T10:39:21;24.00;;;10.97;;
4486;SDS011;2256;48.740;9.106;2023-05-16T10:41:48;30.93;;;11.20;;
4486;SDS011;2256;48.740;9.106;2023-05-16T10:44:15;18.33;;;8.97;;
4486;SDS011;2256;48.740;9.106;2023-05-16T10:46:42;22.30;;;9.87;;
4486;SDS011;2256;48.740;9.106;2023-05-16T10:49:19;18.50;;;8.77;;
4486;SDS011;2256;48.740;9.106;2023-05-16T10:51:49;26.30;;;11.90;;
4486;SDS011;2256;48.740;9.106;2023-05-16T10:54:32;24.90;;;10.47;;
4486;SDS011;2256;48.740;9.106;2023-05-16T10:57:03;18.70;;;8.90;;
4486;SDS011;2256;48.740;9.106;2023-05-16T10:59:38;22.30;;;10.57;;
4486;SDS011;2256;48.740;9.106;2023-05-16T11:02:20;23.57;;;9.07;;
4486;SDS011;2256;48.740;9.106;2023-05-16T11:04:48;19.47;;;9.80;;
4486;SDS011;2256;48.740;9.106;2023-05-16T11:07:17;17.83;;;7.67;;
4486;SDS011;2256;48.740;9.106;2023-05-16T11:09:52;23.43;;;9.13;;
4486;SDS011;2256;48.740;9.106;2023-05-16T11:12:34;23.37;;;9.67;;
4486;SDS011;2256;48.740;9.106;2023-05-16T11:15:19;20.20;;;8.53;;
4486;SDS011;2256;48.740;9.106;2023-05-16T11:17:48;21.23;;;7.83;;
4486;SDS011;2256;48.740;9.106;2023-05-16T11:20:25;22.90;;;9.20;;
4486;SDS011;2256;48.740;9.106;2023-05-16T11:23:16;15.90;;;7.77;;
4486;SDS011;2256;48.740;9.106;2023-05-16T11:25:48;14.90;;;7.47;;
4486;SDS011;2256;48.740;9.106;2023-05-16T11:28:18;15.37;;;7.00;;
4486;SDS011;2256;48.740;9.106;2023-05-16T11:30:46;17.10;;;7.60;;
4486;SDS011;2256;48.740;9.106;2023-05-16T11:33:14;16.20;;;7.20;;
4486;SDS011;2256;48.740;9.106;2023-05-16T11:35:42;13.83;;;6.20;;
4486;SDS011;2256;48.740;9.106;2023-05-16T11:38:14;17.50;;;8.03;;
4486;SDS011;2256;48.740;9.106;2023-05-16T11:40:41;15.60;;;7.33;;
4486;SDS011;2256;48.740;9.106;2023-05-16T11:43:09;15.87;;;8.47;;
4486;SDS011;2256;48.740;9.106;2023-05-16T11:45:37;16.37;;;7.50;;
4486;SDS011;2256;48.740;9.106;2023-05-16T11:48:04;23.10;;;8.40;;
4486;SDS011;2256;48.740;9.106;2023-05-16T11:50:33;13.27;;;6.70;;
4486;SDS011;2256;48.740;9.106;2023-05-16T11:53:00;12.87;;;6.57;;
4486;SDS011;2256;48.740;9.106;2023-05-16T11:55:29;12.90;;;7.17;;
4486;SDS011;2256;48.740;9.106;2023-05-16T11:57:56;13.43;;;6.40;;
4486;SDS011;2256;48.740;9.106;2023-05-16T12:00:24;13.00;;;6.80;;
4486;SDS011;2256;48.740;9.106;2023-05-16T12:02:52;12.77;;;6.30;;
4486;SDS011;2256;48.740;9.106;2023-05-16T12:05:20;11.50;;;5.77;;
4486;SDS011;2256;48.740;9.106;2023-05-16T12:07:49;20.70;;;8.37;;
4486;SDS011;2256;48.740;9.106;2023-05-16T12:10:18;13.83;;;7.40;;
4486;SDS011;2256;48.740;9.106;2023-05-16T12:12:47;12.47;;;6.03;;
4486;SDS011;2256;48.740;9.106;2023-05-16T12:15:17;9.93;;;6.57;;
4486;SDS011;2256;48.740;9.106;2023-05-16T12:17:46;12.90;;;5.97;;
4486;SDS011;2256;48.740;9.106;2023-05-16T12:20:13;10.00;;;5.87;;
4486;SDS011;2256;48.740;9.106;2023-05-16T12:22:41;10.83;;;6.20;;
4486;SDS011;2256;48.740;9.106;2023-05-16T12:25:21;13.80;;;6.43;;
4486;SDS011;2256;48.740;9.106;2023-05-16T12:27:54;11.50;;;6.27;;
4486;SDS011;2256;48.740;9.106;2023-05-16T12:30:34;13.37;;;6.20;;
4486;SDS011;2256;48.740;9.106;2023-05-16T12:33:06;25.93;;;6.43;;
4486;SDS011;2256;48.740;9.106;2023-05-16T12:35:36;12.57;;;5.90;;
4486;SDS011;2256;48.740;9.106;2023-05-16T12:38:05;10.93;;;5.77;;
4486;SDS011;2256;48.740;9.106;2023-05-16T12:40:35;9.50;;;5.60;;
4486;SDS011;2256;48.740;9.106;2023-05-16T12:43:11;15.57;;;7.00;;
4486;SDS011;2256;48.740;9.106;2023-05-16T12:45:40;12.27;;;5.53;;
4486;SDS011;2256;48.740;9.106;2023-05-16T12:48:11;8.73;;;5.90;;
4486;SDS011;2256;48.740;9.106;2023-05-16T12:50:38;8.60;;;4.93;;
4486;SDS011;2256;48.740;9.106;2023-05-16T12:53:09;8.13;;;4.60;;
4486;SDS011;2256;48.740;9.106;2023-05-16T12:55:37;7.67;;;4.90;;
4486;SDS011;2256;48.740;9.106;2023-05-16T12:58:07;9.20;;;4.87;;
4486;SDS011;2256;48.740;9.106;2023-05-16T13:00:35;10.23;;;4.60;;
4486;SDS011;2256;48.740;9.106;2023-05-16T13:03:16;8.90;;;4.80;;
4486;SDS011;2256;48.740;9.106;2023-05-16T13:05:43;7.87;;;5.13;;
4486;SDS011;2256;48.740;9.106;2023-05-16T13:08:10;7.33;;;4.20;;
4486;SDS011;2256;48.740;9.106;2023-05-16T13:10:37;8.40;;;5.40;;
4486;SDS011;2256;48.740;9.106;2023-05-16T13:13:04;7.93;;;4.63;;
4486;SDS011;2256;48.740;9.106;2023-05-16T13:15:32;6.20;;;4.70;;
4486;SDS011;2256;48.740;9.106;2023-05-16T13:17:59;5.83;;;3.83;;
4486;SDS011;2256;48.740;9.106;2023-05-16T13:20:26;3.17;;;2.83;;
4486;SDS011;2256;48.740;9.106;2023-05-16T13:22:53;6.20;;;3.17;;
4486;SDS011;2256;48.740;9.106;2023-05-16T13:25:20;8.10;;;4.83;;
4486;SDS011;2256;48.740;9.106;2023-05-16T13:27:47;5.40;;;3.50;;
4486;SDS011;2256;48.740;9.106;2023-05-16T13:30:14;8.53;;;3.53;;
4486;SDS011;2256;48.740;9.106;2023-05-16T13:32:42;8.60;;;4.10;;
4486;SDS011;2256;48.740;9.106;2023-05-16T13:35:09;10.43;;;4.00;;
4486;SDS011;2256;48.740;9.106;2023-05-16T13:37:36;4.63;;;3.33;;
4486;SDS011;2256;48.740;9.106;2023-05-16T13:40:06;6.33;;;3.63;;
4486;SDS011;2256;48.740;9.106;2023-05-16T13:42:34;4.70;;;3.13;;
4486;SDS011;2256;48.740;9.106;2023-05-16T13:45:01;4.33;;;2.83;;
4486;SDS011;2256;48.740;9.106;2023-05-16T13:47:28;4.37;;;3.30;;
4486;SDS011;2256;48.740;9.106;2023-05-16T13:49:56;5.37;;;3.60;;
4486;SDS011;2256;48.740;9.106;2023-05-16T13:52:23;5.70;;;3.20;;
4486;SDS011;2256;48.740;9.106;2023-05-16T13:54:50;3.70;;;2.90;;
4486;SDS011;2256;48.740;9.106;2023-05-16T13:57:17;4.10;;;2.90;;
4486;SDS011;2256;48.740;9.106;2023-05-16T13:59:46;4.70;;;2.93;;
4486;SDS011;2256;48.740;9.106;2023-05-16T14:02:12;2.87;;;2.57;;
4486;SDS011;2256;48.740;9.106;2023-05-16T14:04:39;3.67;;;2.67;;
4486;SDS011;2256;48.740;9.106;2023-05-16T14:07:08;6.00;;;2.90;;
4486;SDS011;2256;48.740;9.106;2023-05-16T14:09:35;3.57;;;2.93;;
4486;SDS011;2256;48.740;9.106;2023-05-16T14:12:03;4.03;;;2.30;;
4486;SDS011;2256;48.740;9.106;2023-05-16T14:14:31;3.93;;;3.27;;
4486;SDS011;2256;48.740;9.106;2023-05-16T14:16:58;8.00;;;3.67;;
4486;SDS011;2256;48.740;9.106;2023-05-16T14:19:25;4.57;;;2.67;;
4486;SDS011;2256;48.740;9.106;2023-05-16T14:21:52;5.23;;;2.90;;
4486;SDS011;2256;48.740;9.106;2023-05-16T14:24:20;4.03;;;2.40;;
4486;SDS011;2256;48.740;9.106;2023-05-16T14:26:47;2.57;;;2.37;;
4486;SDS011;2256;48.740;9.106;2023-05-16T14:29:14;2.83;;;2.53;;
4486;SDS011;2256;48.740;9.106;2023-05-16T14:31:41;5.60;;;3.30;;
4486;SDS011;2256;48.740;9.106;2023-05-16T14:34:07;2.80;;;2.57;;
4486;SDS011;2256;48.740;9.106;2023-05-16T14:36:34;4.10;;;2.90;;
4486;SDS011;2256;48.740;9.106;2023-05-16T14:39:01;2.90;;;2.00;;
4486;SDS011;2256;48.740;9.106;2023-05-16T14:41:30;2.17;;;1.97;;
4486;SDS011;2256;48.740;9.106;2023-05-16T14:43:57;2.43;;;2.13;;
4486;SDS011;2256;48.740;9.106;2023-05-16T14:46:24;2.73;;;2.47;;
4486;SDS011;2256;48.740;9.106;2023-05-16T14:48:51;3.47;;;2.50;;
4486;SDS011;2256;48.740;9.106;2023-05-16T14:51:26;5.00;;;2.80;;
4486;SDS011;2256;48.740;9.106;2023-05-16T14:53:55;6.27;;;3.17;;
4486;SDS011;2256;48.740;9.106;2023-05-16T14:56:22;2.93;;;2.60;;
4486;SDS011;2256;48.740;9.106;2023-05-16T14:58:53;3.67;;;2.47;;